Mariazell, Austria
Current Conditions -  °F | °C
As of 6:50 PM on Friday 24 Oct 2014 (Local Time) from LOXZ Reporting Station
Few Clouds Few Clouds  
Wind Chill: 43°   Ceiling: Unl
Heat Index: 43°   Visibility: 13mi
Dew Point: 36°   Wind: 3mph
Humidity: 76%   Direction: NA
Pressure: 30.06"   Gusts: NA
Location:  47.77°N, 15.32°E
Report Text: LOXZ 241650Z VRB03KT 20KM FEW050SC 06/02 Q1018 RMK FEW
Loading
Personal Weather Stations






























Interactive Weather Map
Tropical Storm Tracking
New forecast layout! Learn more

10-Day Weather Forecast

Advertisements
Track Severe Weather on mobile